Alkor — DBND — position and weather

sailwx.info

Track history (hours):
 
Tides and Currents Weather Stations Pressure Air Temp Water Temp Dewpoint Dewpoint Depression Visibility Wind Speed Wind Dir Waves Ship Positions

Oceanographic research ship Alkor (Germany)

Ship's website: http://www.briese.de/

Detailed information on ship capabilities available from University of Delaware's Ocean Information Center.

Last reported at 2017-Jun-28 05:19 UTC. Time now 2017-Jun-28 07:07 UTC.
Position N 54°28' E 011°19'.

Length 55 m; draft 4.2 m.

Type: Ship. MMSI: 211216512.

Date/timePositionNaut miles runAvg speedWind from/ knotsBaromVisibWave heightAir tempDewpointWater temp
2017-Jun-28 05:19N 54°28' E 011°19'0 0.3
2017-Jun-28 04:04N 54°28' E 011°19'1 0.1
2017-Jun-27 20:38N 54°28' E 011°20'0 3.4
2017-Jun-27 20:30N 54°29' E 011°20'2 1.2
2017-Jun-27 19:07N 54°30' E 011°20'1 5.1
2017-Jun-27 18:53N 54°31' E 011°21'2 5.9
2017-Jun-27 18:31N 54°30' E 011°24'3 6.1
2017-Jun-27 18:00N 54°28' E 011°28'7 2.9
2017-Jun-27 15:43N 54°30' E 011°18'1 0.3
2017-Jun-27 12:55N 54°31' E 011°16'0 0.5
2017-Jun-27 12:30N 54°30' E 011°16'0 0.6
2017-Jun-27 11:41N 54°31' E 011°16'0 0.2
2017-Jun-27 11:31N 54°31' E 011°16'4 8.8
2017-Jun-27 11:01N 54°33' E 011°10'3 5.2
2017-Jun-27 10:28N 54°34' E 011°05'0 0.2
2017-Jun-27 10:01N 54°34' E 011°05'1 1.4
2017-Jun-27 09:30N 54°35' E 011°06'2 3.1
2017-Jun-27 09:01N 54°36' E 011°07'1 2.6
2017-Jun-27 08:30N 54°35' E 011°06'2 4.5
2017-Jun-27 08:00N 54°34' E 011°02'1 1.2
2017-Jun-27 07:30N 54°35' E 011°01'0 0.2
2017-Jun-27 07:01N 54°35' E 011°01'0 0.0
2017-Jun-27 06:31N 54°35' E 011°01'0 0.1
2017-Jun-27 06:01N 54°35' E 011°01'0 0.8
2017-Jun-27 05:30N 54°35' E 011°02'1 2.1
2017-Jun-27 05:01N 54°34' E 011°03'1 1.0
2017-Jun-27 04:31N 54°34' E 011°04'1 1.0
2017-Jun-27 04:00N 54°34' E 011°05'0 0.9
2017-Jun-27 03:31N 54°34' E 011°06'0 0.5
2017-Jun-27 03:00N 54°34' E 011°05'1 1.5
2017-Jun-27 02:31N 54°34' E 011°04'1 1.3
2017-Jun-27 02:01N 54°34' E 011°03'1 1.3
2017-Jun-27 01:31N 54°34' E 011°02'1 1.2
2017-Jun-27 01:01N 54°34' E 011°01'0 0.9
2017-Jun-27 00:31N 54°34' E 010°60'0 0.7
2017-Jun-26 23:58N 54°34' E 011°00'1 0.9
2017-Jun-26 23:10N 54°34' E 011°02'0 1.0
2017-Jun-26 22:57N 54°34' E 011°02'0 0.9
2017-Jun-26 22:28N 54°34' E 011°03'0 0.8
2017-Jun-26 22:00N 54°34' E 011°03'1 1.2
2017-Jun-26 21:30N 54°34' E 011°04'1 1.3
2017-Jun-26 20:58N 54°34' E 011°05'1 1.6
2017-Jun-26 20:30N 54°35' E 011°06'1 2.8
2017-Jun-26 20:01N 54°36' E 011°07'1 2.4
2017-Jun-26 19:31N 54°37' E 011°07'0 0.8
2017-Jun-26 19:01N 54°37' E 011°07'3 5.1
2017-Jun-26 18:30N 54°34' E 011°06'1 1.4
2017-Jun-26 17:54N 54°34' E 011°07'2 4.0
2017-Jun-26 17:31N 54°34' E 011°05'3 5.3
2017-Jun-26 17:01N 54°35' E 011°00'3 4.4
2017-Jun-26 16:19N 54°34' E 011°05'1 4.1
2017-Jun-26 16:00N 54°34' E 011°07'2 4.8
2017-Jun-26 15:30N 54°34' E 011°03'2 4.5
2017-Jun-26 15:01N 54°35' E 010°60'0 0.1
2017-Jun-26 14:00N 54°35' E 010°59'2 5.0
2017-Jun-26 13:31N 54°34' E 010°56'1111.9
2017-Jun-26 12:37N 54°33' E 010°37'111.5
2017-Jun-26 12:29N 54°32' E 010°35'611.6
2017-Jun-26 12:00N 54°30' E 010°26'611.3
2017-Jun-26 11:31N 54°28' E 010°17'510.8
2017-Jun-26 11:00N 54°23' E 010°12'3 7.1
2017-Jun-26 10:30N 54°20' E 010°11'0 0.0
2017-Jun-26 07:48N 54°20' E 010°11'0 0.0
2017-Jun-26 07:30N 54°20' E 010°11'0 0.0
2017-Jun-26 07:00N 54°20' E 010°11'0 0.0
2017-Jun-26 06:30N 54°20' E 010°11'0 0.3
2017-Jun-26 05:59N 54°20' E 010°10'1 0.2
2017-Jun-26 00:58N 54°20' E 010°09'0 0.0
2017-Jun-26 00:22N 54°20' E 010°09'0 0.0
2017-Jun-25 23:52N 54°20' E 010°09'0 0.0
2017-Jun-25 23:28N 54°20' E 010°09'0 0.0
2017-Jun-25 22:58N 54°20' E 010°09'0 0.0
2017-Jun-25 22:28N 54°20' E 010°09'0 0.0
2017-Jun-25 21:28N 54°20' E 010°09'0 0.0
2017-Jun-25 20:58N 54°20' E 010°09'0 0.0
2017-Jun-25 20:22N 54°20' E 010°09'0 0.0
2017-Jun-25 19:22N 54°20' E 010°09'0 0.0
2017-Jun-25 18:55N 54°20' E 010°09'0 0.0
2017-Jun-25 18:28N 54°20' E 010°09'0 0.0
2017-Jun-25 17:52N 54°20' E 010°09'0 0.0
2017-Jun-25 17:28N 54°20' E 010°09'0 0.0
2017-Jun-25 16:52N 54°20' E 010°09'0 0.0
2017-Jun-25 16:28N 54°20' E 010°09'0 0.0
2017-Jun-25 15:58N 54°20' E 010°09'0 0.0
2017-Jun-25 15:25N 54°20' E 010°09'0 0.0
2017-Jun-25 14:55N 54°20' E 010°09'0 0.0
2017-Jun-25 14:28N 54°20' E 010°09'0 0.0
2017-Jun-25 13:28N 54°20' E 010°09'0 0.0
2017-Jun-25 12:52N 54°20' E 010°09'0 0.0
2017-Jun-25 12:10N 54°20' E 010°09'0 0.0
2017-Jun-25 11:58N 54°20' E 010°09'0 0.0
2017-Jun-25 11:28N 54°20' E 010°09'0 0.0
2017-Jun-25 10:58N 54°20' E 010°09'0 0.0
2017-Jun-25 01:16N 54°20' E 010°09'0 0.0
2017-Jun-25 00:58N 54°20' E 010°09'0 0.0
2017-Jun-25 00:24N 54°20' E 010°09'0 0.0
2017-Jun-24 23:37N 54°20' E 010°09'0 0.0
2017-Jun-24 23:15N 54°20' E 010°09'0 0.0
2017-Jun-24 22:58N 54°20' E 010°09'0 0.0
2017-Jun-24 22:28N 54°20' E 010°09'0 0.0
2017-Jun-24 21:58N 54°20' E 010°09'0 0.0
2017-Jun-24 21:27N 54°20' E 010°09'0 0.0
2017-Jun-24 20:58N 54°20' E 010°09'0 0.0
2017-Jun-24 20:28N 54°20' E 010°09'0 0.0
2017-Jun-24 19:57N 54°20' E 010°09'0 0.0
2017-Jun-24 19:30N 54°20' E 010°09'0 0.0
2017-Jun-24 18:52N 54°20' E 010°09'0 0.0
2017-Jun-24 17:39N 54°20' E 010°09'0 0.0
2017-Jun-24 16:49N 54°20' E 010°09'0 0.0
2017-Jun-24 16:30N 54°20' E 010°09'0 0.0
2017-Jun-24 15:48N 54°20' E 010°09'0 0.0
2017-Jun-24 15:30N 54°20' E 010°09'0 0.0
2017-Jun-24 14:51N 54°20' E 010°09'0 0.0
2017-Jun-24 13:57N 54°20' E 010°09'0 0.0
2017-Jun-24 13:15N 54°20' E 010°09'  
2017-Jun-22 07:56N 54°27' E 010°14'1 0.1
2017-Jun-21 12:12N 54°27' E 010°14'311.2
2017-Jun-21 11:58N 54°29' E 010°13'3 1.2
2017-Jun-21 09:19N 54°32' E 010°15'4 5.5
2017-Jun-21 08:33N 54°28' E 010°14'0 0.3
2017-Jun-21 08:30N 54°28' E 010°14'0 0.1
2017-Jun-21 07:59N 54°28' E 010°14'3 6.1
2017-Jun-21 07:30N 54°25' E 010°13'510.5
2017-Jun-21 07:00N 54°20' E 010°10'1 0.9
2017-Jun-21 06:28N 54°20' E 010°09'0 0.0
2017-Jun-21 05:55N 54°20' E 010°09'0 0.0
2017-Jun-21 05:25N 54°20' E 010°09'0 0.0
2017-Jun-21 04:43N 54°20' E 010°09'0 0.0
2017-Jun-21 04:16N 54°20' E 010°09'0 0.0
2017-Jun-21 03:55N 54°20' E 010°09'0 0.0
2017-Jun-21 03:22N 54°20' E 010°09'0 0.0
2017-Jun-21 02:52N 54°20' E 010°09'0 0.0
2017-Jun-21 02:28N 54°20' E 010°09'0 0.0
2017-Jun-21 01:58N 54°20' E 010°09'0 0.0
2017-Jun-21 01:28N 54°20' E 010°09'0 0.0
2017-Jun-21 00:58N 54°20' E 010°09'0 0.0
2017-Jun-21 00:16N 54°20' E 010°09'0 0.0
2017-Jun-20 23:49N 54°20' E 010°09'0 0.0
2017-Jun-20 23:28N 54°20' E 010°09'0 0.0
2017-Jun-20 22:52N 54°20' E 010°09'0 0.0
2017-Jun-20 22:28N 54°20' E 010°09'0 0.0
2017-Jun-20 21:52N 54°20' E 010°09'0 0.0
2017-Jun-20 21:28N 54°20' E 010°09'0 0.0
2017-Jun-20 20:58N 54°20' E 010°09'0 0.0
2017-Jun-20 20:28N 54°20' E 010°09'0 0.0
2017-Jun-20 19:52N 54°20' E 010°09'0 0.0
2017-Jun-20 19:28N 54°20' E 010°09'0 0.0
2017-Jun-20 18:58N 54°20' E 010°09'0 0.0
2017-Jun-20 18:22N 54°20' E 010°09'0 0.0
2017-Jun-20 17:46N 54°20' E 010°09'0 0.0
2017-Jun-20 17:25N 54°20' E 010°09'0 0.0
2017-Jun-20 16:58N 54°20' E 010°09'  
Track history (hours):
 
Tides and Currents Weather Stations Pressure Air Temp Water Temp Dewpoint Dewpoint Depression Visibility Wind Speed Wind Dir Waves Ship Positions

Oceanographic research ship Alkor (Germany)

Ship's website: http://www.briese.de/

Detailed information on ship capabilities available from University of Delaware's Ocean Information Center.

Last reported at 2017-Jun-28 05:19 UTC. Time now 2017-Jun-28 07:07 UTC.
Position N 54°28' E 011°19'.

Length 55 m; draft 4.2 m.

Type: Ship. MMSI: 211216512.

Date/timePositionNaut miles runAvg speedWind from/ knotsBaromVisibWave heightAir tempDewpointWater temp
2017-Jun-28 05:19N 54°28' E 011°19'0 0.3
2017-Jun-28 04:04N 54°28' E 011°19'1 0.1
2017-Jun-27 20:38N 54°28' E 011°20'0 3.4
2017-Jun-27 20:30N 54°29' E 011°20'2 1.2
2017-Jun-27 19:07N 54°30' E 011°20'1 5.1
2017-Jun-27 18:53N 54°31' E 011°21'2 5.9
2017-Jun-27 18:31N 54°30' E 011°24'3 6.1
2017-Jun-27 18:00N 54°28' E 011°28'7 2.9
2017-Jun-27 15:43N 54°30' E 011°18'1 0.3
2017-Jun-27 12:55N 54°31' E 011°16'0 0.5
2017-Jun-27 12:30N 54°30' E 011°16'0 0.6
2017-Jun-27 11:41N 54°31' E 011°16'0 0.2
2017-Jun-27 11:31N 54°31' E 011°16'4 8.8
2017-Jun-27 11:01N 54°33' E 011°10'3 5.2
2017-Jun-27 10:28N 54°34' E 011°05'0 0.2
2017-Jun-27 10:01N 54°34' E 011°05'1 1.4
2017-Jun-27 09:30N 54°35' E 011°06'2 3.1
2017-Jun-27 09:01N 54°36' E 011°07'1 2.6
2017-Jun-27 08:30N 54°35' E 011°06'2 4.5
2017-Jun-27 08:00N 54°34' E 011°02'1 1.2
2017-Jun-27 07:30N 54°35' E 011°01'0 0.2
2017-Jun-27 07:01N 54°35' E 011°01'0 0.0
2017-Jun-27 06:31N 54°35' E 011°01'0 0.1
2017-Jun-27 06:01N 54°35' E 011°01'0 0.8
2017-Jun-27 05:30N 54°35' E 011°02'1 2.1
2017-Jun-27 05:01N 54°34' E 011°03'1 1.0
2017-Jun-27 04:31N 54°34' E 011°04'1 1.0
2017-Jun-27 04:00N 54°34' E 011°05'0 0.9
2017-Jun-27 03:31N 54°34' E 011°06'0 0.5
2017-Jun-27 03:00N 54°34' E 011°05'1 1.5
2017-Jun-27 02:31N 54°34' E 011°04'1 1.3
2017-Jun-27 02:01N 54°34' E 011°03'1 1.3
2017-Jun-27 01:31N 54°34' E 011°02'1 1.2
2017-Jun-27 01:01N 54°34' E 011°01'0 0.9
2017-Jun-27 00:31N 54°34' E 010°60'0 0.7
2017-Jun-26 23:58N 54°34' E 011°00'1 0.9
2017-Jun-26 23:10N 54°34' E 011°02'0 1.0
2017-Jun-26 22:57N 54°34' E 011°02'0 0.9
2017-Jun-26 22:28N 54°34' E 011°03'0 0.8
2017-Jun-26 22:00N 54°34' E 011°03'1 1.2
2017-Jun-26 21:30N 54°34' E 011°04'1 1.3
2017-Jun-26 20:58N 54°34' E 011°05'1 1.6
2017-Jun-26 20:30N 54°35' E 011°06'1 2.8
2017-Jun-26 20:01N 54°36' E 011°07'1 2.4
2017-Jun-26 19:31N 54°37' E 011°07'0 0.8
2017-Jun-26 19:01N 54°37' E 011°07'3 5.1
2017-Jun-26 18:30N 54°34' E 011°06'1 1.4
2017-Jun-26 17:54N 54°34' E 011°07'2 4.0
2017-Jun-26 17:31N 54°34' E 011°05'3 5.3
2017-Jun-26 17:01N 54°35' E 011°00'3 4.4
2017-Jun-26 16:19N 54°34' E 011°05'1 4.1
2017-Jun-26 16:00N 54°34' E 011°07'2 4.8
2017-Jun-26 15:30N 54°34' E 011°03'2 4.5
2017-Jun-26 15:01N 54°35' E 010°60'0 0.1
2017-Jun-26 14:00N 54°35' E 010°59'2 5.0
2017-Jun-26 13:31N 54°34' E 010°56'1111.9
2017-Jun-26 12:37N 54°33' E 010°37'111.5
2017-Jun-26 12:29N 54°32' E 010°35'611.6
2017-Jun-26 12:00N 54°30' E 010°26'611.3
2017-Jun-26 11:31N 54°28' E 010°17'510.8
2017-Jun-26 11:00N 54°23' E 010°12'3 7.1
2017-Jun-26 10:30N 54°20' E 010°11'0 0.0
2017-Jun-26 07:48N 54°20' E 010°11'0 0.0
2017-Jun-26 07:30N 54°20' E 010°11'0 0.0
2017-Jun-26 07:00N 54°20' E 010°11'0 0.0
2017-Jun-26 06:30N 54°20' E 010°11'0 0.3
2017-Jun-26 05:59N 54°20' E 010°10'1 0.2
2017-Jun-26 00:58N 54°20' E 010°09'0 0.0
2017-Jun-26 00:22N 54°20' E 010°09'0 0.0
2017-Jun-25 23:52N 54°20' E 010°09'0 0.0
2017-Jun-25 23:28N 54°20' E 010°09'0 0.0
2017-Jun-25 22:58N 54°20' E 010°09'0 0.0
2017-Jun-25 22:28N 54°20' E 010°09'0 0.0
2017-Jun-25 21:28N 54°20' E 010°09'0 0.0
2017-Jun-25 20:58N 54°20' E 010°09'0 0.0
2017-Jun-25 20:22N 54°20' E 010°09'0 0.0
2017-Jun-25 19:22N 54°20' E 010°09'0 0.0
2017-Jun-25 18:55N 54°20' E 010°09'0 0.0
2017-Jun-25 18:28N 54°20' E 010°09'0 0.0
2017-Jun-25 17:52N 54°20' E 010°09'0 0.0
2017-Jun-25 17:28N 54°20' E 010°09'0 0.0
2017-Jun-25 16:52N 54°20' E 010°09'0 0.0
2017-Jun-25 16:28N 54°20' E 010°09'0 0.0
2017-Jun-25 15:58N 54°20' E 010°09'0 0.0
2017-Jun-25 15:25N 54°20' E 010°09'0 0.0
2017-Jun-25 14:55N 54°20' E 010°09'0 0.0
2017-Jun-25 14:28N 54°20' E 010°09'0 0.0
2017-Jun-25 13:28N 54°20' E 010°09'0 0.0
2017-Jun-25 12:52N 54°20' E 010°09'0 0.0
2017-Jun-25 12:10N 54°20' E 010°09'0 0.0
2017-Jun-25 11:58N 54°20' E 010°09'0 0.0
2017-Jun-25 11:28N 54°20' E 010°09'0 0.0
2017-Jun-25 10:58N 54°20' E 010°09'0 0.0
2017-Jun-25 01:16N 54°20' E 010°09'0 0.0
2017-Jun-25 00:58N 54°20' E 010°09'0 0.0
2017-Jun-25 00:24N 54°20' E 010°09'0 0.0
2017-Jun-24 23:37N 54°20' E 010°09'0 0.0
2017-Jun-24 23:15N 54°20' E 010°09'0 0.0
2017-Jun-24 22:58N 54°20' E 010°09'0 0.0
2017-Jun-24 22:28N 54°20' E 010°09'0 0.0
2017-Jun-24 21:58N 54°20' E 010°09'0 0.0
2017-Jun-24 21:27N 54°20' E 010°09'0 0.0
2017-Jun-24 20:58N 54°20' E 010°09'0 0.0
2017-Jun-24 20:28N 54°20' E 010°09'0 0.0
2017-Jun-24 19:57N 54°20' E 010°09'0 0.0
2017-Jun-24 19:30N 54°20' E 010°09'0 0.0
2017-Jun-24 18:52N 54°20' E 010°09'0 0.0
2017-Jun-24 17:39N 54°20' E 010°09'0 0.0
2017-Jun-24 16:49N 54°20' E 010°09'0 0.0
2017-Jun-24 16:30N 54°20' E 010°09'0 0.0
2017-Jun-24 15:48N 54°20' E 010°09'0 0.0
2017-Jun-24 15:30N 54°20' E 010°09'0 0.0
2017-Jun-24 14:51N 54°20' E 010°09'0 0.0
2017-Jun-24 13:57N 54°20' E 010°09'0 0.0
2017-Jun-24 13:15N 54°20' E 010°09'  
2017-Jun-22 07:56N 54°27' E 010°14'1 0.1
2017-Jun-21 12:12N 54°27' E 010°14'311.2
2017-Jun-21 11:58N 54°29' E 010°13'3 1.2
2017-Jun-21 09:19N 54°32' E 010°15'4 5.5
2017-Jun-21 08:33N 54°28' E 010°14'0 0.3
2017-Jun-21 08:30N 54°28' E 010°14'0 0.1
2017-Jun-21 07:59N 54°28' E 010°14'3 6.1
2017-Jun-21 07:30N 54°25' E 010°13'510.5
2017-Jun-21 07:00N 54°20' E 010°10'1 0.9
2017-Jun-21 06:28N 54°20' E 010°09'0 0.0
2017-Jun-21 05:55N 54°20' E 010°09'0 0.0
2017-Jun-21 05:25N 54°20' E 010°09'0 0.0
2017-Jun-21 04:43N 54°20' E 010°09'0 0.0
2017-Jun-21 04:16N 54°20' E 010°09'0 0.0
2017-Jun-21 03:55N 54°20' E 010°09'0 0.0
2017-Jun-21 03:22N 54°20' E 010°09'0 0.0
2017-Jun-21 02:52N 54°20' E 010°09'0 0.0
2017-Jun-21 02:28N 54°20' E 010°09'0 0.0
2017-Jun-21 01:58N 54°20' E 010°09'0 0.0
2017-Jun-21 01:28N 54°20' E 010°09'0 0.0
2017-Jun-21 00:58N 54°20' E 010°09'0 0.0
2017-Jun-21 00:16N 54°20' E 010°09'0 0.0
2017-Jun-20 23:49N 54°20' E 010°09'0 0.0
2017-Jun-20 23:28N 54°20' E 010°09'0 0.0
2017-Jun-20 22:52N 54°20' E 010°09'0 0.0
2017-Jun-20 22:28N 54°20' E 010°09'0 0.0
2017-Jun-20 21:52N 54°20' E 010°09'0 0.0
2017-Jun-20 21:28N 54°20' E 010°09'0 0.0
2017-Jun-20 20:58N 54°20' E 010°09'0 0.0
2017-Jun-20 20:28N 54°20' E 010°09'0 0.0
2017-Jun-20 19:52N 54°20' E 010°09'0 0.0
2017-Jun-20 19:28N 54°20' E 010°09'0 0.0
2017-Jun-20 18:58N 54°20' E 010°09'0 0.0
2017-Jun-20 18:22N 54°20' E 010°09'0 0.0
2017-Jun-20 17:46N 54°20' E 010°09'0 0.0
2017-Jun-20 17:25N 54°20' E 010°09'0 0.0
2017-Jun-20 16:58N 54°20' E 010°09'  

Dump ship's entire track history